createdAt,value
2023-03-13T00:00:23.418Z,14.82
2023-03-13T00:02:57.302Z,12.75
2023-03-13T00:08:04.646Z,12.95
2023-03-13T00:10:38.172Z,13.27
2023-03-13T00:13:11.540Z,14.40
2023-03-13T00:15:44.480Z,12.98
2023-03-13T00:18:17.685Z,13.23
2023-03-13T00:20:50.849Z,12.88
2023-03-13T00:23:25.226Z,12.60
2023-03-13T00:25:59.530Z,12.25
2023-03-13T00:28:34.032Z,12.60
2023-03-13T00:31:08.835Z,12.77
2023-03-13T00:33:43.817Z,12.65
2023-03-13T00:36:18.380Z,12.10
2023-03-13T00:38:53.767Z,13.63
2023-03-13T00:41:28.492Z,12.13
2023-03-13T00:44:02.004Z,13.00
2023-03-13T00:46:37.514Z,12.20
2023-03-13T00:49:10.591Z,13.13
2023-03-13T00:51:43.521Z,12.43
2023-03-13T00:54:17.869Z,12.03
2023-03-13T00:56:50.866Z,11.98
2023-03-13T00:59:23.876Z,11.55
2023-03-13T01:01:56.979Z,13.27
2023-03-13T01:04:29.972Z,12.20
2023-03-13T01:07:03.024Z,12.40
2023-03-13T01:09:37.376Z,12.13
2023-03-13T01:12:10.923Z,10.82
2023-03-13T01:14:43.896Z,12.93
2023-03-13T01:17:16.898Z,12.32
2023-03-13T01:19:50.056Z,11.48
2023-03-13T01:22:23.049Z,11.70
2023-03-13T01:24:57.385Z,10.87
2023-03-13T01:27:30.701Z,11.27
2023-03-13T01:30:03.808Z,12.25
2023-03-13T01:32:37.272Z,11.52
2023-03-13T01:35:10.497Z,11.35
2023-03-13T01:37:43.648Z,10.88
2023-03-13T01:40:18.404Z,11.93
2023-03-13T01:42:53.422Z,11.27
2023-03-13T01:45:57.590Z,10.65
2023-03-13T01:48:38.903Z,10.20
2023-03-13T01:51:16.731Z,10.80
2023-03-13T01:53:52.812Z,11.23
2023-03-13T01:56:34.409Z,11.88
2023-03-13T01:59:11.858Z,11.32
2023-03-13T02:01:48.423Z,12.10
2023-03-13T02:04:23.516Z,10.98
2023-03-13T02:07:02.181Z,11.30
2023-03-13T02:09:36.948Z,10.25
2023-03-13T02:12:15.846Z,11.55
2023-03-13T02:14:51.670Z,12.15
2023-03-13T02:17:26.212Z,11.57
2023-03-13T02:19:59.376Z,11.60
2023-03-13T02:22:39.271Z,11.45
2023-03-13T02:25:22.073Z,11.73
2023-03-13T02:28:03.983Z,11.32
2023-03-13T02:30:39.796Z,11.25
2023-03-13T02:33:15.400Z,11.82
2023-03-13T02:35:49.691Z,11.52
2023-03-13T02:38:26.990Z,11.52
2023-03-13T02:41:02.957Z,10.55
2023-03-13T02:43:39.347Z,11.52
2023-03-13T02:46:15.040Z,11.80
2023-03-13T02:48:53.583Z,11.38
2023-03-13T02:51:32.656Z,11.27
2023-03-13T02:54:11.651Z,11.18
2023-03-13T02:56:49.044Z,11.60
2023-03-13T02:59:23.514Z,11.82
2023-03-13T03:01:56.813Z,11.90
2023-03-13T03:04:29.791Z,12.10
2023-03-13T03:07:02.835Z,11.80
2023-03-13T03:09:36.224Z,11.80
2023-03-13T03:12:14.268Z,10.90
2023-03-13T03:14:48.821Z,12.27
2023-03-13T03:17:22.945Z,12.30
2023-03-13T03:19:55.996Z,12.27
2023-03-13T03:22:28.951Z,12.93
2023-03-13T03:25:01.929Z,12.50
2023-03-13T03:27:37.471Z,11.68
2023-03-13T03:30:15.584Z,13.20
2023-03-13T03:32:48.716Z,11.35
2023-03-13T03:35:21.838Z,12.02
2023-03-13T03:37:54.864Z,12.20
2023-03-13T03:40:28.168Z,12.33
2023-03-13T03:43:01.415Z,11.18
2023-03-13T03:45:36.083Z,11.95
2023-03-13T03:48:09.090Z,11.48
2023-03-13T03:50:42.321Z,12.13
2023-03-13T03:53:15.397Z,11.88
2023-03-13T03:55:48.586Z,11.97
2023-03-13T03:58:21.773Z,12.65
2023-03-13T04:01:07.915Z,12.55
2023-03-13T04:03:41.117Z,13.38
2023-03-13T04:06:16.038Z,12.93
2023-03-13T04:08:49.689Z,11.52
2023-03-13T04:11:25.612Z,12.65
2023-03-13T04:14:01.024Z,13.18
2023-03-13T04:16:35.984Z,12.83
2023-03-13T04:19:09.002Z,13.82
2023-03-13T04:21:46.335Z,14.80
2023-03-13T04:24:32.124Z,13.52
2023-03-13T04:27:06.654Z,12.52
2023-03-13T04:29:40.099Z,12.65
2023-03-13T04:32:28.243Z,12.38
2023-03-13T04:35:24.328Z,12.05
2023-03-13T04:38:29.574Z,12.63
2023-03-13T04:41:28.931Z,12.23
2023-03-13T04:44:34.302Z,12.13
2023-03-13T04:47:19.752Z,12.63
2023-03-13T04:50:29.615Z,12.73
2023-03-13T04:53:28.556Z,12.73
2023-03-13T04:56:42.306Z,12.93
2023-03-13T04:59:34.044Z,13.43
2023-03-13T05:02:25.092Z,11.60
2023-03-13T05:05:24.269Z,12.20
2023-03-13T05:08:17.076Z,13.25
2023-03-13T05:11:00.328Z,13.13
2023-03-13T05:13:51.570Z,11.48
2023-03-13T05:16:53.587Z,12.10
2023-03-13T05:19:55.807Z,14.02
2023-03-13T05:23:03.841Z,12.60
2023-03-13T05:25:56.920Z,11.43
2023-03-13T05:28:48.224Z,12.32
2023-03-13T05:31:29.133Z,11.80
2023-03-13T05:34:20.960Z,11.77
2023-03-13T05:37:12.538Z,11.05
2023-03-13T05:40:06.956Z,12.05
2023-03-13T05:42:51.325Z,11.13
2023-03-13T05:45:47.243Z,11.38
2023-03-13T05:48:42.737Z,11.00
2023-03-13T05:51:41.920Z,11.30
2023-03-13T05:54:37.377Z,10.88
2023-03-13T05:57:19.327Z,12.30
2023-03-13T06:00:04.155Z,11.80
2023-03-13T06:03:02.809Z,11.73
2023-03-13T06:05:41.468Z,11.25
2023-03-13T06:08:29.241Z,10.32
2023-03-13T06:11:03.384Z,11.18
2023-03-13T06:13:36.580Z,10.65
2023-03-13T06:16:29.475Z,11.27
2023-03-13T06:19:18.082Z,12.48
2023-03-13T06:21:51.109Z,10.93
2023-03-13T06:24:24.382Z,11.80
2023-03-13T06:26:57.360Z,9.65
2023-03-13T06:29:30.307Z,10.77
2023-03-13T06:32:05.351Z,11.40
2023-03-13T06:34:38.666Z,10.13
2023-03-13T06:37:11.704Z,11.18
2023-03-13T06:39:44.709Z,10.13
2023-03-13T06:42:17.697Z,10.33
2023-03-13T06:44:50.637Z,9.93
2023-03-13T06:47:25.088Z,9.70
2023-03-13T06:49:58.078Z,10.25
2023-03-13T06:52:41.439Z,9.67
2023-03-13T06:55:16.482Z,13.23
2023-03-13T06:57:52.098Z,9.57
2023-03-13T07:00:25.954Z,9.65
2023-03-13T07:05:36.290Z,8.95
2023-03-13T07:08:09.465Z,9.98
2023-03-13T07:10:44.074Z,9.65
2023-03-13T07:13:21.874Z,10.10
2023-03-13T07:15:54.876Z,9.60
2023-03-13T07:18:29.293Z,10.00
2023-03-13T07:21:05.019Z,9.05
2023-03-13T07:23:37.993Z,9.43
2023-03-13T07:26:13.933Z,9.27
2023-03-13T07:28:47.098Z,9.80
2023-03-13T07:31:23.970Z,9.35
2023-03-13T07:33:58.405Z,10.02
2023-03-13T07:36:31.519Z,11.75
2023-03-13T07:39:04.873Z,17.08
2023-03-13T07:41:39.066Z,10.63
2023-03-13T07:44:13.050Z,8.77
2023-03-13T07:46:46.108Z,8.82
2023-03-13T07:49:20.478Z,9.70
2023-03-13T07:51:53.581Z,8.80
2023-03-13T07:54:26.666Z,8.27
2023-03-13T07:56:59.689Z,10.23
2023-03-13T07:59:32.757Z,9.43
2023-03-13T08:02:06.431Z,8.82
2023-03-13T08:04:41.056Z,9.02
2023-03-13T08:07:14.109Z,8.98
2023-03-13T08:09:49.780Z,9.35
2023-03-13T08:12:22.808Z,9.65
2023-03-13T08:14:55.816Z,9.75
2023-03-13T08:17:30.621Z,10.30
2023-03-13T08:20:08.325Z,9.57
2023-03-13T08:22:41.402Z,9.85
2023-03-13T08:25:14.638Z,9.85
2023-03-13T08:27:47.901Z,10.07
2023-03-13T08:30:21.213Z,9.05
2023-03-13T08:32:54.197Z,9.25
2023-03-13T08:35:30.075Z,9.07
2023-03-13T08:38:03.454Z,8.93
2023-03-13T08:40:36.716Z,10.35
2023-03-13T08:43:09.759Z,10.13
2023-03-13T08:45:42.977Z,9.07
2023-03-13T08:48:16.109Z,9.40
2023-03-13T08:51:01.776Z,10.32
2023-03-13T08:53:36.413Z,9.00
2023-03-13T08:56:10.729Z,8.30
2023-03-13T08:58:43.887Z,8.90
2023-03-13T09:01:16.926Z,9.38
2023-03-13T09:03:50.584Z,9.55
2023-03-13T09:06:25.109Z,9.70
2023-03-13T09:08:59.084Z,10.55
2023-03-13T09:11:32.345Z,11.93
2023-03-13T09:14:05.475Z,8.63
2023-03-13T09:16:39.050Z,7.68
2023-03-13T09:19:12.210Z,14.13
2023-03-13T09:21:46.955Z,10.45
2023-03-13T09:24:20.218Z,7.35
2023-03-13T09:27:00.932Z,7.75
2023-03-13T09:29:38.071Z,7.30
2023-03-13T09:32:11.998Z,8.18
2023-03-13T09:34:45.040Z,7.75
2023-03-13T09:37:19.472Z,8.18
2023-03-13T09:39:52.718Z,8.23
2023-03-13T09:42:33.608Z,7.55
2023-03-13T09:45:10.007Z,7.65
2023-03-13T09:47:48.410Z,7.90
2023-03-13T09:50:27.650Z,9.82
2023-03-13T09:53:07.389Z,8.45
2023-03-13T09:55:43.047Z,8.02
2023-03-13T09:58:21.211Z,7.93
2023-03-13T10:00:58.667Z,7.82
2023-03-13T10:03:36.545Z,6.75
2023-03-13T10:06:19.338Z,7.43
2023-03-13T10:08:53.931Z,7.88
2023-03-13T10:11:29.415Z,7.25
2023-03-13T10:14:06.924Z,7.32
2023-03-13T10:16:45.276Z,6.88
2023-03-13T10:19:22.801Z,7.45
2023-03-13T10:21:58.298Z,7.00
2023-03-13T10:24:37.759Z,8.13
2023-03-13T10:27:12.421Z,6.65
2023-03-13T10:29:45.399Z,6.50
2023-03-13T10:32:20.774Z,6.20
2023-03-13T10:34:57.178Z,5.85
2023-03-13T10:37:31.863Z,6.70
2023-03-13T10:40:23.914Z,6.38
2023-03-13T10:43:04.658Z,6.20
2023-03-13T10:45:38.818Z,6.45
2023-03-13T10:48:15.473Z,5.82
2023-03-13T10:50:50.729Z,5.50
2023-03-13T10:53:27.997Z,6.75
2023-03-13T10:56:11.346Z,5.53
2023-03-13T10:58:49.968Z,5.63
2023-03-13T11:01:25.073Z,6.22
2023-03-13T11:04:00.732Z,9.05
2023-03-13T11:06:35.668Z,9.55
2023-03-13T11:09:14.384Z,5.88
2023-03-13T11:11:50.774Z,5.80
2023-03-13T11:14:25.197Z,4.97
2023-03-13T11:17:04.472Z,5.43
2023-03-13T11:19:54.459Z,6.25
2023-03-13T11:22:41.795Z,4.93
2023-03-13T11:25:21.969Z,5.40
2023-03-13T11:28:13.802Z,5.45
2023-03-13T11:30:58.855Z,5.18
2023-03-13T11:33:40.418Z,5.40
2023-03-13T11:36:20.479Z,5.07
2023-03-13T11:38:57.075Z,5.30
2023-03-13T11:41:48.325Z,4.93
2023-03-13T11:44:32.351Z,5.38
2023-03-13T11:50:16.726Z,4.95
2023-03-13T11:53:05.403Z,5.15
2023-03-13T11:55:58.252Z,4.65
2023-03-13T11:58:43.362Z,4.97
2023-03-13T12:01:19.430Z,4.85
2023-03-13T12:03:59.039Z,6.22
2023-03-13T12:06:35.117Z,5.15
2023-03-13T12:09:13.723Z,4.65
2023-03-13T12:12:03.270Z,4.78
2023-03-13T12:14:41.167Z,5.65
2023-03-13T12:17:23.740Z,4.50
2023-03-13T12:20:02.345Z,6.05
2023-03-13T12:22:40.852Z,5.15
2023-03-13T12:25:19.092Z,5.40
2023-03-13T12:27:55.501Z,5.32
2023-03-13T12:30:37.380Z,5.43
2023-03-13T12:33:23.585Z,5.47
2023-03-13T12:36:05.306Z,6.80
2023-03-13T12:38:42.409Z,5.82
2023-03-13T12:41:25.718Z,5.00
2023-03-13T12:44:08.195Z,5.97
2023-03-13T12:46:46.278Z,5.53
2023-03-13T12:49:44.587Z,5.30
2023-03-13T12:52:51.809Z,5.13
2023-03-13T12:55:46.893Z,13.27
2023-03-13T12:58:31.655Z,10.55
2023-03-13T13:01:08.035Z,7.03
2023-03-13T13:03:51.437Z,5.50
2023-03-13T13:06:26.147Z,5.60
2023-03-13T13:09:09.528Z,6.72
2023-03-13T13:11:48.477Z,5.68
2023-03-13T13:14:59.405Z,5.00
2023-03-13T13:18:04.272Z,4.90
2023-03-13T13:20:44.363Z,5.65
2023-03-13T13:23:35.011Z,6.68
2023-03-13T13:26:47.300Z,6.55
2023-03-13T13:29:57.062Z,6.95
2023-03-13T13:32:39.356Z,9.35
2023-03-13T13:35:30.253Z,9.45
2023-03-13T13:38:23.430Z,8.52
2023-03-13T13:41:03.823Z,6.97
2023-03-13T13:43:38.503Z,5.68
2023-03-13T13:46:24.625Z,5.75
2023-03-13T13:49:14.852Z,6.40
2023-03-13T13:52:20.961Z,5.22
2023-03-13T13:54:56.935Z,4.72
2023-03-13T13:57:35.974Z,4.75
2023-03-13T14:00:20.813Z,3.67
2023-03-13T14:02:54.956Z,3.75
2023-03-13T14:05:31.849Z,4.00
2023-03-13T14:08:07.742Z,3.85
2023-03-13T14:10:42.861Z,4.15
2023-03-13T14:13:19.536Z,3.90
2023-03-13T14:15:54.193Z,3.97
2023-03-13T14:18:29.396Z,4.00
2023-03-13T14:21:05.014Z,4.78
2023-03-13T14:23:42.619Z,3.67
2023-03-13T14:26:18.751Z,4.05
2023-03-13T14:28:55.495Z,4.05
2023-03-13T14:31:30.582Z,4.13
2023-03-13T14:34:05.318Z,5.20
2023-03-13T14:36:48.133Z,5.10
2023-03-13T14:39:40.112Z,6.25
2023-03-13T14:42:14.794Z,5.60
2023-03-13T14:44:50.520Z,5.13
2023-03-13T14:47:26.768Z,5.35
2023-03-13T14:50:01.526Z,7.47
2023-03-13T14:52:35.486Z,5.15
2023-03-13T14:55:28.274Z,4.38
2023-03-13T14:58:05.278Z,4.57
2023-03-13T15:00:54.759Z,5.20
2023-03-13T15:03:34.323Z,4.30
2023-03-13T15:06:16.806Z,4.35
2023-03-13T15:08:51.654Z,5.28
2023-03-13T15:11:32.118Z,4.78
2023-03-13T15:14:05.180Z,4.80
2023-03-13T15:16:39.605Z,6.05
2023-03-13T15:19:12.629Z,4.97
2023-03-13T15:21:45.648Z,5.80
2023-03-13T15:24:18.878Z,6.22
2023-03-13T15:26:51.932Z,5.93
2023-03-13T15:29:24.883Z,5.18
2023-03-13T15:32:04.152Z,6.70
2023-03-13T15:34:37.238Z,5.05
2023-03-13T15:37:13.399Z,5.60
2023-03-13T15:39:46.726Z,5.20
2023-03-13T15:42:19.708Z,4.90
2023-03-13T15:44:52.708Z,4.60
2023-03-13T15:47:27.726Z,6.50
2023-03-13T15:50:00.749Z,6.30
2023-03-13T15:52:35.412Z,6.13
2023-03-13T15:55:10.054Z,6.32
2023-03-13T15:57:46.346Z,4.78
2023-03-13T16:00:22.361Z,6.93
2023-03-13T16:02:56.727Z,5.85
2023-03-13T16:05:30.129Z,6.00
2023-03-13T16:08:03.093Z,5.85
2023-03-13T16:10:36.261Z,5.65
2023-03-13T16:13:09.684Z,11.57
2023-03-13T16:15:42.677Z,6.28
2023-03-13T16:18:21.126Z,5.47
2023-03-13T16:20:55.046Z,4.85
2023-03-13T16:26:00.744Z,5.20
2023-03-13T16:28:33.836Z,4.57
2023-03-13T16:31:07.363Z,4.72
2023-03-13T16:33:41.945Z,5.00
2023-03-13T16:36:17.328Z,6.18
2023-03-13T16:38:50.667Z,6.57
2023-03-13T16:41:25.196Z,6.03
2023-03-13T16:43:58.420Z,6.95
2023-03-13T16:46:36.541Z,7.05
2023-03-13T16:49:15.223Z,5.93
2023-03-13T16:51:48.201Z,6.30
2023-03-13T16:54:21.245Z,5.47
2023-03-13T16:56:54.392Z,6.03
2023-03-13T16:59:27.467Z,5.93
2023-03-13T17:02:00.459Z,6.72
2023-03-13T17:04:35.421Z,6.13
2023-03-13T17:07:17.607Z,5.68
2023-03-13T17:09:54.241Z,7.32
2023-03-13T17:12:27.327Z,7.38
2023-03-13T17:15:00.377Z,6.13
2023-03-13T17:17:35.789Z,7.18
2023-03-13T17:20:14.819Z,5.57
2023-03-13T17:22:47.948Z,5.65
2023-03-13T17:25:20.954Z,6.20
2023-03-13T17:27:54.432Z,9.73
2023-03-13T17:30:30.119Z,6.97
2023-03-13T17:33:03.150Z,6.10
2023-03-13T17:35:37.590Z,6.32
2023-03-13T17:38:11.570Z,7.07
2023-03-13T17:40:47.221Z,6.55
2023-03-13T17:43:20.189Z,5.88
2023-03-13T17:45:54.537Z,6.78
2023-03-13T17:48:28.244Z,6.35
2023-03-13T17:51:02.662Z,7.43
2023-03-13T17:53:35.697Z,6.47
2023-03-13T17:56:13.892Z,6.18
2023-03-13T17:58:48.774Z,6.25
2023-03-13T18:01:23.350Z,6.13
2023-03-13T18:03:58.769Z,7.18
2023-03-13T18:06:38.276Z,7.00
2023-03-13T18:09:16.072Z,6.30
2023-03-13T18:11:49.569Z,5.68
2023-03-13T18:14:23.034Z,6.15
2023-03-13T18:16:57.476Z,6.65
2023-03-13T18:19:30.907Z,7.90
2023-03-13T18:22:07.280Z,7.88
2023-03-13T18:24:40.534Z,6.78
2023-03-13T18:27:17.630Z,7.88
2023-03-13T18:29:50.928Z,6.90
2023-03-13T18:32:24.046Z,6.95
2023-03-13T18:34:57.062Z,7.75
2023-03-13T18:37:33.122Z,7.70
2023-03-13T18:40:17.026Z,8.52
2023-03-13T18:42:52.528Z,6.95
2023-03-13T18:45:27.320Z,7.38
2023-03-13T18:48:00.400Z,6.50
2023-03-13T18:50:33.787Z,7.78
2023-03-13T18:53:08.396Z,7.80
2023-03-13T18:55:42.998Z,6.93
2023-03-13T18:58:16.267Z,7.93
2023-03-13T19:00:52.460Z,5.93
2023-03-13T19:03:25.577Z,7.28
2023-03-13T19:06:00.293Z,7.15
2023-03-13T19:08:34.638Z,6.20
2023-03-13T19:11:13.233Z,6.70
2023-03-13T19:13:46.610Z,5.93
2023-03-13T19:16:21.769Z,7.05
2023-03-13T19:18:55.049Z,7.47
2023-03-13T19:21:29.780Z,6.70
2023-03-13T19:24:04.560Z,7.38
2023-03-13T19:26:40.688Z,6.95
2023-03-13T19:29:15.597Z,6.15
2023-03-13T19:31:49.158Z,5.90
2023-03-13T19:34:22.646Z,7.38
2023-03-13T19:36:55.621Z,6.97
2023-03-13T19:39:30.008Z,6.82
2023-03-13T19:42:03.009Z,6.65
2023-03-13T19:44:36.637Z,7.82
2023-03-13T19:47:14.352Z,7.63
2023-03-13T19:49:49.854Z,6.25
2023-03-13T19:52:22.956Z,6.65
2023-03-13T19:55:05.183Z,7.82
2023-03-13T19:57:39.187Z,6.40
2023-03-13T20:02:52.302Z,5.60
2023-03-13T20:05:27.178Z,6.35
2023-03-13T20:08:00.337Z,6.68
2023-03-13T20:10:34.778Z,5.95
2023-03-13T20:13:07.758Z,6.70
2023-03-13T20:15:40.759Z,6.72
2023-03-13T20:18:13.819Z,6.75
2023-03-13T20:20:46.821Z,7.00
2023-03-13T20:23:19.972Z,6.25
2023-03-13T20:25:54.392Z,6.20
2023-03-13T20:28:27.399Z,6.25
2023-03-13T20:31:00.420Z,5.75
2023-03-13T20:33:33.558Z,6.10
2023-03-13T20:36:09.402Z,5.72
2023-03-13T20:38:43.494Z,5.68
2023-03-13T20:41:21.070Z,5.70
2023-03-13T20:43:54.588Z,5.95
2023-03-13T20:46:27.863Z,7.13
2023-03-13T20:49:00.822Z,5.85
2023-03-13T20:51:34.079Z,6.53
2023-03-13T20:54:14.364Z,5.80
2023-03-13T20:56:48.750Z,5.15
2023-03-13T20:59:21.729Z,5.47
2023-03-13T21:01:54.710Z,6.03
2023-03-13T21:04:27.768Z,6.70
2023-03-13T21:07:04.605Z,6.72
2023-03-13T21:09:37.924Z,6.60
2023-03-13T21:12:12.277Z,6.47
2023-03-13T21:14:46.382Z,6.30
2023-03-13T21:17:22.604Z,5.47
2023-03-13T21:19:56.292Z,6.78
2023-03-13T21:25:04.949Z,5.57
2023-03-13T21:27:39.577Z,6.80
2023-03-13T21:30:21.113Z,6.25
2023-03-13T21:33:08.758Z,5.25
2023-03-13T21:35:41.856Z,5.80
2023-03-13T21:38:14.931Z,7.38
2023-03-13T21:40:47.892Z,6.15
2023-03-13T21:43:23.723Z,5.82
2023-03-13T21:46:05.206Z,5.53
2023-03-13T21:48:39.340Z,5.80
2023-03-13T21:51:12.874Z,5.80
2023-03-13T21:53:45.950Z,4.05
2023-03-13T21:56:23.821Z,5.63
2023-03-13T21:59:01.104Z,5.20
2023-03-13T22:01:34.166Z,7.55
2023-03-13T22:04:07.305Z,5.15
2023-03-13T22:06:40.352Z,5.47
2023-03-13T22:09:15.539Z,4.82
2023-03-13T22:11:48.762Z,6.13
2023-03-13T22:14:28.903Z,4.72
2023-03-13T22:17:02.122Z,5.00
2023-03-13T22:19:35.353Z,5.85
2023-03-13T22:22:10.137Z,5.68
2023-03-13T22:24:46.387Z,5.90
2023-03-13T22:27:19.598Z,5.28
2023-03-13T22:30:01.250Z,5.35
2023-03-13T22:32:34.393Z,5.60
2023-03-13T22:35:08.873Z,5.53
2023-03-13T22:37:41.850Z,5.22
2023-03-13T22:40:15.043Z,5.22
2023-03-13T22:42:54.643Z,5.90
2023-03-13T22:45:30.495Z,5.78
2023-03-13T22:48:10.353Z,6.55
2023-03-13T22:50:43.424Z,5.93
2023-03-13T22:53:16.620Z,6.75
2023-03-13T22:55:50.044Z,7.03
2023-03-13T22:58:23.307Z,7.57
2023-03-13T23:00:57.665Z,7.03
2023-03-13T23:03:30.660Z,6.63
2023-03-13T23:06:07.333Z,7.80
2023-03-13T23:08:42.264Z,7.45
2023-03-13T23:11:17.024Z,7.55
2023-03-13T23:13:50.279Z,7.07
2023-03-13T23:16:24.986Z,8.75
2023-03-13T23:19:00.793Z,8.23
2023-03-13T23:21:33.860Z,7.95
2023-03-13T23:24:07.979Z,9.07
2023-03-13T23:26:40.936Z,8.00
2023-03-13T23:29:14.193Z,8.30
2023-03-13T23:31:48.641Z,8.40
2023-03-13T23:34:22.181Z,7.65
2023-03-13T23:36:58.196Z,8.60
2023-03-13T23:39:31.906Z,8.50
2023-03-13T23:42:05.041Z,8.05
2023-03-13T23:44:38.290Z,8.98
2023-03-13T23:47:13.767Z,7.88
2023-03-13T23:49:46.760Z,8.63
2023-03-13T23:52:19.709Z,8.85
2023-03-13T23:54:52.848Z,8.65
2023-03-13T23:57:25.972Z,8.30
